createdAt,value
2022-07-30T00:00:31.818Z,4.97
2022-07-30T00:02:58.237Z,6.27
2022-07-30T00:05:24.701Z,5.03
2022-07-30T00:07:51.112Z,5.17
2022-07-30T00:10:17.516Z,6.10
2022-07-30T00:12:44.304Z,5.13
2022-07-30T00:15:10.767Z,6.67
2022-07-30T00:17:37.219Z,4.73
2022-07-30T00:20:04.377Z,5.17
2022-07-30T00:22:31.698Z,4.87
2022-07-30T00:24:58.542Z,4.90
2022-07-30T00:27:25.024Z,5.30
2022-07-30T00:29:51.466Z,5.10
2022-07-30T00:32:17.949Z,5.70
2022-07-30T00:34:44.398Z,8.70
2022-07-30T00:37:10.916Z,5.50
2022-07-30T00:39:37.305Z,5.23
2022-07-30T00:42:04.371Z,5.83
2022-07-30T00:44:30.816Z,4.97
2022-07-30T00:46:57.720Z,5.00
2022-07-30T00:49:24.709Z,5.03
2022-07-30T00:51:52.044Z,5.47
2022-07-30T00:54:18.623Z,5.50
2022-07-30T00:56:45.120Z,7.17
2022-07-30T00:59:11.512Z,6.27
2022-07-30T01:01:39.548Z,5.73
2022-07-30T01:04:11.366Z,5.30
2022-07-30T01:06:39.255Z,5.50
2022-07-30T01:09:06.040Z,6.13
2022-07-30T01:11:35.556Z,5.57
2022-07-30T01:14:02.283Z,5.37
2022-07-30T01:16:28.869Z,5.77
2022-07-30T01:19:16.105Z,8.03
2022-07-30T01:21:45.616Z,5.40
2022-07-30T01:24:20.676Z,6.33
2022-07-30T01:26:47.643Z,5.63
2022-07-30T01:29:15.030Z,5.13
2022-07-30T01:31:41.984Z,7.47
2022-07-30T01:34:09.630Z,6.53
2022-07-30T01:36:37.404Z,5.70
2022-07-30T01:39:03.930Z,6.77
2022-07-30T01:41:30.721Z,5.03
2022-07-30T01:43:57.955Z,5.97
2022-07-30T01:46:25.055Z,5.63
2022-07-30T01:48:53.651Z,5.70
2022-07-30T01:51:20.232Z,8.47
2022-07-30T01:53:51.418Z,5.33
2022-07-30T01:56:19.845Z,6.20
2022-07-30T01:58:52.630Z,5.70
2022-07-30T02:01:23.545Z,5.20
2022-07-30T02:03:55.586Z,5.53
2022-07-30T02:06:23.251Z,5.87
2022-07-30T02:08:52.811Z,5.87
2022-07-30T02:11:39.130Z,6.97
2022-07-30T02:14:23.647Z,5.00
2022-07-30T02:16:53.064Z,4.63
2022-07-30T02:19:23.875Z,6.80
2022-07-30T02:22:08.643Z,5.70
2022-07-30T02:24:37.241Z,5.37
2022-07-30T02:27:08.543Z,5.33
2022-07-30T02:29:36.844Z,5.60
2022-07-30T02:32:08.422Z,5.73
2022-07-30T02:34:37.618Z,6.17
2022-07-30T02:37:04.925Z,5.60
2022-07-30T02:39:33.954Z,5.80
2022-07-30T02:45:53.588Z,5.13
2022-07-30T02:48:44.483Z,5.37
2022-07-30T02:51:10.932Z,5.10
2022-07-30T02:53:38.241Z,7.03
2022-07-30T02:56:06.893Z,5.30
2022-07-30T02:58:35.502Z,5.43
2022-07-30T03:01:03.201Z,5.67
2022-07-30T03:03:30.685Z,5.60
2022-07-30T03:05:57.913Z,4.97
2022-07-30T03:08:26.310Z,4.87
2022-07-30T03:10:55.102Z,5.70
2022-07-30T03:13:24.457Z,5.30
2022-07-30T03:15:51.751Z,5.73
2022-07-30T03:18:21.183Z,5.70
2022-07-30T03:20:49.972Z,5.40
2022-07-30T03:23:19.866Z,5.67
2022-07-30T03:25:48.826Z,5.73
2022-07-30T03:28:15.566Z,5.30
2022-07-30T03:30:43.965Z,5.50
2022-07-30T03:33:12.179Z,5.87
2022-07-30T03:35:41.587Z,5.93
2022-07-30T03:38:10.422Z,5.77
2022-07-30T03:40:36.852Z,5.63
2022-07-30T03:43:03.657Z,6.63
2022-07-30T03:45:30.933Z,6.00
2022-07-30T03:48:04.950Z,6.07
2022-07-30T03:50:34.799Z,5.33
2022-07-30T03:53:02.847Z,5.40
2022-07-30T03:55:29.502Z,6.13
2022-07-30T03:58:27.743Z,6.80
2022-07-30T04:01:04.270Z,6.33
2022-07-30T04:03:31.480Z,6.00
2022-07-30T04:06:02.376Z,6.63
2022-07-30T04:08:29.147Z,6.20
2022-07-30T04:10:55.840Z,5.73
2022-07-30T04:13:40.807Z,5.63
2022-07-30T04:16:39.549Z,7.40
2022-07-30T04:19:03.617Z,9.13
2022-07-30T04:21:30.445Z,5.60
2022-07-30T04:24:03.158Z,5.67
2022-07-30T04:26:39.682Z,6.10
2022-07-30T04:29:07.488Z,6.40
2022-07-30T04:31:40.606Z,6.33
2022-07-30T04:34:36.767Z,6.17
2022-07-30T04:37:06.537Z,5.70
2022-07-30T04:39:32.980Z,6.47
2022-07-30T04:41:59.903Z,5.43
2022-07-30T04:44:34.437Z,5.77
2022-07-30T04:47:24.404Z,9.63
2022-07-30T04:50:13.992Z,7.37
2022-07-30T04:52:42.941Z,5.73
2022-07-30T04:55:10.993Z,5.27
2022-07-30T04:57:40.169Z,5.40
2022-07-30T05:00:07.029Z,5.73
2022-07-30T05:02:37.662Z,6.17
2022-07-30T05:05:04.799Z,5.73
2022-07-30T05:07:31.537Z,5.80
2022-07-30T05:09:59.548Z,6.13
2022-07-30T05:12:32.808Z,6.10
2022-07-30T05:15:00.294Z,6.63
2022-07-30T05:17:26.762Z,6.30
2022-07-30T05:19:53.215Z,5.70
2022-07-30T05:22:19.592Z,7.33
2022-07-30T05:24:46.106Z,5.87
2022-07-30T05:27:12.611Z,6.00
2022-07-30T05:29:39.521Z,5.43
2022-07-30T05:32:14.077Z,5.83
2022-07-30T05:34:42.050Z,5.40
2022-07-30T05:37:10.139Z,7.23
2022-07-30T05:39:57.136Z,6.30
2022-07-30T05:42:37.612Z,6.60
2022-07-30T05:45:04.268Z,7.50
2022-07-30T05:47:30.690Z,6.37
2022-07-30T05:50:00.368Z,7.37
2022-07-30T05:52:29.873Z,5.87
2022-07-30T05:55:02.995Z,6.27
2022-07-30T05:57:53.381Z,7.03
2022-07-30T06:00:20.446Z,6.93
2022-07-30T06:02:53.530Z,7.60
2022-07-30T06:16:40.017Z,8.13
2022-07-30T06:19:06.705Z,10.63
2022-07-30T06:22:02.129Z,7.27
2022-07-30T06:24:26.214Z,7.07
2022-07-30T06:27:13.597Z,6.70
2022-07-30T06:29:40.132Z,7.47
2022-07-30T06:32:06.728Z,7.83
2022-07-30T06:34:33.150Z,6.20
2022-07-30T06:37:00.118Z,9.23
2022-07-30T06:39:57.359Z,6.30
2022-07-30T06:42:19.611Z,6.67
2022-07-30T06:45:09.640Z,6.97
2022-07-30T06:47:59.792Z,6.33
2022-07-30T06:50:29.967Z,6.37
2022-07-30T06:52:56.375Z,6.67
2022-07-30T06:55:25.504Z,5.97
2022-07-30T06:57:56.848Z,5.63
2022-07-30T07:00:58.376Z,5.83
2022-07-30T07:03:26.311Z,6.27
2022-07-30T07:06:07.286Z,6.27
2022-07-30T07:08:35.590Z,8.63
2022-07-30T07:11:06.326Z,5.97
2022-07-30T07:13:42.015Z,9.00
2022-07-30T07:16:12.487Z,10.00
2022-07-30T07:18:42.622Z,9.90
2022-07-30T07:21:09.712Z,5.43
2022-07-30T07:23:41.883Z,7.53
2022-07-30T07:26:29.247Z,6.27
2022-07-30T07:28:55.755Z,6.17
2022-07-30T07:32:04.467Z,7.27
2022-07-30T07:34:17.043Z,5.00
2022-07-30T07:36:43.887Z,6.47
2022-07-30T07:39:13.083Z,6.67
2022-07-30T07:41:48.999Z,7.67
2022-07-30T07:44:19.415Z,5.20
2022-07-30T07:46:45.887Z,5.23
2022-07-30T07:49:12.469Z,4.90
2022-07-30T07:51:48.881Z,4.70
2022-07-30T07:54:22.184Z,4.40
2022-07-30T07:56:51.501Z,4.45
2022-07-30T07:59:19.580Z,5.93
2022-07-30T08:01:46.566Z,5.10
2022-07-30T08:04:17.004Z,4.30
2022-07-30T08:07:02.574Z,4.40
2022-07-30T08:09:49.241Z,4.05
2022-07-30T08:12:34.669Z,4.43
2022-07-30T08:15:22.015Z,3.97
2022-07-30T08:18:00.877Z,4.47
2022-07-30T08:20:54.591Z,6.15
2022-07-30T08:23:26.158Z,3.85
2022-07-30T08:25:52.805Z,9.23
2022-07-30T08:28:35.241Z,4.43
2022-07-30T08:31:03.256Z,3.85
2022-07-30T08:33:29.673Z,4.40
2022-07-30T08:35:59.349Z,7.40
2022-07-30T08:38:31.793Z,6.20
2022-07-30T08:40:58.232Z,4.40
2022-07-30T08:43:25.649Z,7.10
2022-07-30T08:45:55.328Z,3.63
2022-07-30T08:48:35.794Z,4.87
2022-07-30T08:51:02.262Z,5.87
2022-07-30T08:53:35.062Z,3.03
2022-07-30T08:56:03.988Z,3.90
2022-07-30T08:58:34.317Z,3.50
2022-07-30T09:01:01.429Z,3.67
2022-07-30T09:03:28.950Z,4.03
2022-07-30T09:06:00.013Z,4.03
2022-07-30T09:08:27.194Z,7.20
2022-07-30T09:10:53.761Z,4.73
2022-07-30T09:13:24.972Z,4.87
2022-07-30T09:15:51.777Z,4.93
2022-07-30T09:18:37.774Z,5.23
2022-07-30T09:21:24.463Z,2.50
2022-07-30T09:24:12.379Z,9.97
2022-07-30T09:26:57.484Z,5.13
2022-07-30T09:29:43.077Z,4.47
2022-07-30T09:32:46.454Z,3.07
2022-07-30T09:35:31.635Z,3.03
2022-07-30T09:38:10.266Z,3.07
2022-07-30T09:40:57.201Z,2.20
2022-07-30T09:43:49.641Z,5.47
2022-07-30T09:46:23.438Z,4.43
2022-07-30T09:48:50.448Z,2.37
2022-07-30T09:51:19.293Z,3.83
2022-07-30T09:53:57.711Z,3.80
2022-07-30T09:56:25.889Z,2.57
2022-07-30T09:58:53.276Z,3.63
2022-07-30T10:01:23.439Z,3.67
2022-07-30T10:04:30.911Z,5.50
2022-07-30T10:07:25.315Z,2.30
2022-07-30T10:09:54.180Z,2.40
2022-07-30T10:12:24.066Z,5.80
2022-07-30T10:14:53.095Z,3.60
2022-07-30T10:17:21.356Z,5.53
2022-07-30T10:20:19.576Z,2.37
2022-07-30T10:23:27.075Z,3.20
2022-07-30T10:26:13.021Z,2.03
2022-07-30T10:29:03.121Z,3.93
2022-07-30T10:31:46.784Z,2.67
2022-07-30T10:34:19.646Z,3.43
2022-07-30T10:36:52.043Z,2.00
2022-07-30T10:39:26.203Z,2.50
2022-07-30T10:42:05.071Z,2.10
2022-07-30T10:44:50.619Z,2.70
2022-07-30T10:47:25.974Z,2.03
2022-07-30T10:50:04.445Z,1.70
2022-07-30T10:52:51.075Z,2.30
2022-07-30T10:55:18.464Z,2.13
2022-07-30T10:57:57.149Z,4.17
2022-07-30T11:00:25.475Z,3.20
2022-07-30T11:03:15.205Z,5.50
2022-07-30T11:05:45.359Z,2.60
2022-07-30T11:08:32.403Z,3.30
2022-07-30T11:11:16.168Z,3.53
2022-07-30T11:13:57.334Z,2.20
2022-07-30T11:16:44.852Z,2.30
2022-07-30T11:19:55.236Z,2.85
2022-07-30T11:22:38.898Z,3.83
2022-07-30T11:25:13.056Z,2.67
2022-07-30T11:27:41.411Z,2.88
2022-07-30T11:30:17.916Z,1.80
2022-07-30T11:33:12.325Z,2.83
2022-07-30T11:35:38.877Z,2.05
2022-07-30T11:38:23.416Z,2.08
2022-07-30T11:40:49.829Z,2.47
2022-07-30T11:43:35.792Z,1.77
2022-07-30T11:46:28.649Z,2.30
2022-07-30T11:48:56.571Z,3.00
2022-07-30T11:51:23.026Z,1.70
2022-07-30T11:54:03.544Z,2.35
2022-07-30T11:56:30.037Z,3.17
2022-07-30T11:59:03.927Z,2.25
2022-07-30T12:01:30.995Z,2.60
2022-07-30T12:03:57.487Z,3.05
2022-07-30T12:06:23.973Z,3.58
2022-07-30T12:08:55.047Z,3.00
2022-07-30T12:11:24.983Z,2.60
2022-07-30T12:13:59.663Z,1.43
2022-07-30T12:16:27.129Z,4.70
2022-07-30T12:18:53.632Z,1.60
2022-07-30T12:21:21.230Z,3.13
2022-07-30T12:23:54.662Z,2.53
2022-07-30T12:26:22.353Z,3.90
2022-07-30T12:28:53.256Z,1.88
2022-07-30T12:31:19.680Z,2.60
2022-07-30T12:33:46.138Z,2.72
2022-07-30T12:36:23.985Z,1.20
2022-07-30T12:38:52.661Z,3.05
2022-07-30T12:41:19.175Z,0.90
2022-07-30T12:43:52.849Z,1.55
2022-07-30T12:46:26.662Z,1.10
2022-07-30T12:49:08.208Z,0.73
2022-07-30T12:52:00.201Z,0.80
2022-07-30T12:54:27.431Z,1.30
2022-07-30T12:57:00.342Z,0.77
2022-07-30T12:59:27.500Z,1.48
2022-07-30T13:01:54.707Z,2.10
2022-07-30T13:04:21.333Z,1.13
2022-07-30T13:07:06.627Z,1.10
2022-07-30T13:09:33.308Z,1.55
2022-07-30T13:11:59.862Z,1.13
2022-07-30T13:14:26.928Z,0.80
2022-07-30T13:16:55.833Z,1.10
2022-07-30T13:19:22.330Z,0.93
2022-07-30T13:21:49.834Z,2.75
2022-07-30T13:24:17.873Z,0.75
2022-07-30T13:26:44.895Z,0.60
2022-07-30T13:29:14.350Z,1.85
2022-07-30T13:31:42.628Z,0.63
2022-07-30T13:34:10.185Z,0.77
2022-07-30T13:36:36.559Z,0.85
2022-07-30T13:39:03.013Z,2.72
2022-07-30T13:41:29.806Z,1.73
2022-07-30T13:43:56.388Z,0.70
2022-07-30T13:46:22.784Z,1.48
2022-07-30T13:48:49.905Z,1.27
2022-07-30T13:51:16.595Z,0.80
2022-07-30T13:53:42.985Z,0.70
2022-07-30T13:56:12.665Z,0.88
2022-07-30T13:58:39.389Z,2.03
2022-07-30T14:01:07.036Z,1.17
2022-07-30T14:03:33.786Z,1.17
2022-07-30T14:06:10.369Z,0.70
2022-07-30T14:08:37.575Z,0.90
2022-07-30T14:11:03.971Z,0.80
2022-07-30T14:13:30.452Z,1.00
2022-07-30T14:15:56.873Z,1.67
2022-07-30T14:18:23.293Z,0.63
2022-07-30T14:20:52.612Z,0.80
2022-07-30T14:23:19.423Z,1.10
2022-07-30T14:25:45.942Z,0.97
2022-07-30T14:28:12.786Z,0.80
2022-07-30T14:30:39.277Z,1.13
2022-07-30T14:33:05.648Z,2.43
2022-07-30T14:35:32.301Z,2.10
2022-07-30T14:37:58.737Z,0.90
2022-07-30T14:40:25.129Z,0.80
2022-07-30T14:42:51.622Z,1.17
2022-07-30T14:45:17.987Z,1.40
2022-07-30T14:47:44.398Z,0.97
2022-07-30T14:50:10.783Z,0.77
2022-07-30T14:52:38.697Z,1.43
2022-07-30T14:55:06.740Z,0.80
2022-07-30T14:57:33.621Z,0.87
2022-07-30T15:00:00.421Z,1.43
2022-07-30T15:02:29.334Z,1.07
2022-07-30T15:04:55.778Z,0.80
2022-07-30T15:07:22.350Z,0.70
2022-07-30T15:09:48.741Z,0.87
2022-07-30T15:12:23.435Z,1.23
2022-07-30T15:14:50.638Z,1.33
2022-07-30T15:17:18.805Z,1.43
2022-07-30T15:19:46.261Z,0.70
2022-07-30T15:22:17.849Z,1.87
2022-07-30T15:24:44.240Z,1.73
2022-07-30T15:27:10.652Z,1.53
2022-07-30T15:29:37.242Z,0.60
2022-07-30T15:32:03.867Z,0.77
2022-07-30T15:34:34.297Z,0.90
2022-07-30T15:37:01.319Z,1.57
2022-07-30T15:39:29.438Z,1.57
2022-07-30T15:41:56.954Z,0.83
2022-07-30T15:44:23.865Z,3.40
2022-07-30T15:46:50.237Z,0.60
2022-07-30T15:49:16.692Z,1.30
2022-07-30T15:51:48.496Z,1.80
2022-07-30T15:54:15.640Z,0.60
2022-07-30T15:56:49.607Z,1.57
2022-07-30T15:59:16.107Z,0.77
2022-07-30T16:01:43.917Z,2.23
2022-07-30T16:04:19.715Z,0.63
2022-07-30T16:06:47.256Z,1.30
2022-07-30T16:09:13.743Z,2.30
2022-07-30T16:11:41.545Z,1.43
2022-07-30T16:14:08.976Z,1.90
2022-07-30T16:16:35.394Z,0.60
2022-07-30T16:19:01.844Z,0.87
2022-07-30T16:21:28.251Z,0.60
2022-07-30T16:23:55.147Z,0.97
2022-07-30T16:26:21.586Z,0.40
2022-07-30T16:28:48.013Z,0.87
2022-07-30T16:31:14.409Z,1.13
2022-07-30T16:33:40.836Z,0.70
2022-07-30T16:36:07.580Z,0.63
2022-07-30T16:38:34.006Z,1.33
2022-07-30T16:41:00.401Z,0.50
2022-07-30T16:43:26.825Z,0.60
2022-07-30T16:45:53.222Z,1.03
2022-07-30T16:48:19.640Z,1.53
2022-07-30T16:50:46.050Z,0.67
2022-07-30T16:53:14.525Z,0.60
2022-07-30T16:55:41.689Z,0.80
2022-07-30T16:58:08.115Z,2.30
2022-07-30T17:00:34.634Z,0.57
2022-07-30T17:03:01.030Z,1.47
2022-07-30T17:05:27.449Z,1.83
2022-07-30T17:07:53.857Z,0.50
2022-07-30T17:10:23.503Z,0.40
2022-07-30T17:12:53.078Z,1.43
2022-07-30T17:15:19.462Z,0.73
2022-07-30T17:17:46.114Z,1.07
2022-07-30T17:20:14.402Z,0.50
2022-07-30T17:22:43.076Z,0.60
2022-07-30T17:25:10.012Z,0.60
2022-07-30T17:27:36.770Z,0.93
2022-07-30T17:30:04.684Z,0.60
2022-07-30T17:32:31.101Z,0.50
2022-07-30T17:34:57.588Z,0.53
2022-07-30T17:37:24.168Z,0.50
2022-07-30T17:40:19.268Z,3.27
2022-07-30T17:42:37.718Z,0.73
2022-07-30T17:45:05.210Z,0.40
2022-07-30T17:47:31.613Z,0.50
2022-07-30T17:49:58.492Z,0.50
2022-07-30T17:52:26.461Z,0.87
2022-07-30T17:54:53.539Z,0.80
2022-07-30T17:57:20.847Z,0.60
2022-07-30T17:59:47.344Z,0.87
2022-07-30T18:02:13.786Z,0.53
2022-07-30T18:04:40.298Z,1.50
2022-07-30T18:07:06.700Z,0.70
2022-07-30T18:09:39.550Z,3.27
2022-07-30T18:12:07.051Z,0.60
2022-07-30T18:14:33.473Z,0.53
2022-07-30T18:17:00.413Z,0.80
2022-07-30T18:19:27.406Z,0.90
2022-07-30T18:21:54.124Z,1.10
2022-07-30T18:24:21.090Z,1.60
2022-07-30T18:26:51.149Z,1.53
2022-07-30T18:29:17.865Z,1.83
2022-07-30T18:31:44.248Z,2.43
2022-07-30T18:34:10.707Z,2.23
2022-07-30T18:36:37.208Z,2.60
2022-07-30T18:39:04.137Z,1.53
2022-07-30T18:41:30.589Z,1.70
2022-07-30T18:43:56.994Z,3.23
2022-07-30T18:46:23.492Z,2.17
2022-07-30T18:48:50.134Z,2.13
2022-07-30T18:51:16.641Z,1.83
2022-07-30T18:53:43.076Z,2.43
2022-07-30T18:56:09.483Z,1.70
2022-07-30T18:58:37.899Z,2.77
2022-07-30T19:01:04.822Z,1.80
2022-07-30T19:03:31.311Z,2.23
2022-07-30T19:05:57.707Z,1.50
2022-07-30T19:08:24.106Z,1.93
2022-07-30T19:10:51.547Z,2.17
2022-07-30T19:13:18.418Z,2.17
2022-07-30T19:15:45.105Z,2.80
2022-07-30T19:18:11.541Z,1.70
2022-07-30T19:20:37.987Z,3.37
2022-07-30T19:23:07.275Z,1.60
2022-07-30T19:25:34.326Z,1.90
2022-07-30T19:28:01.468Z,2.50
2022-07-30T19:30:28.863Z,2.00
2022-07-30T19:32:55.351Z,2.47
2022-07-30T19:35:21.824Z,2.07
2022-07-30T19:37:48.255Z,2.23
2022-07-30T19:40:14.737Z,2.23
2022-07-30T19:42:41.603Z,1.63
2022-07-30T19:45:11.529Z,2.60
2022-07-30T19:47:39.732Z,2.57
2022-07-30T19:50:09.971Z,2.87
2022-07-30T19:52:36.607Z,3.43
2022-07-30T19:55:03.875Z,3.23
2022-07-30T19:57:52.882Z,3.00
2022-07-30T20:00:24.867Z,2.30
2022-07-30T20:02:52.061Z,2.10
2022-07-30T20:05:18.497Z,2.80
2022-07-30T20:07:45.767Z,1.77
2022-07-30T20:10:13.078Z,3.57
2022-07-30T20:12:42.078Z,2.47
2022-07-30T20:15:13.911Z,1.97
2022-07-30T20:17:41.439Z,2.70
2022-07-30T20:20:09.018Z,1.67
2022-07-30T20:22:35.372Z,1.43
2022-07-30T20:25:02.509Z,1.70
2022-07-30T20:27:35.942Z,3.43
2022-07-30T20:30:04.254Z,2.40
2022-07-30T20:32:30.710Z,2.00
2022-07-30T20:34:57.213Z,3.23
2022-07-30T20:37:24.763Z,3.57
2022-07-30T20:39:54.826Z,2.60
2022-07-30T20:42:23.881Z,2.27
2022-07-30T20:44:51.263Z,4.77
2022-07-30T20:47:34.680Z,2.83
2022-07-30T20:50:14.436Z,1.97
2022-07-30T20:52:41.242Z,2.53
2022-07-30T20:55:16.172Z,2.13
2022-07-30T20:57:44.318Z,2.07
2022-07-30T21:00:25.317Z,2.33
2022-07-30T21:02:51.751Z,2.90
2022-07-30T21:05:20.070Z,2.23
2022-07-30T21:07:47.015Z,3.30
2022-07-30T21:10:13.494Z,3.00
2022-07-30T21:12:41.228Z,4.27
2022-07-30T21:15:23.224Z,3.80
2022-07-30T21:17:50.919Z,5.60
2022-07-30T21:20:27.842Z,7.50
2022-07-30T21:22:55.256Z,3.90
2022-07-30T21:25:21.638Z,3.27
2022-07-30T21:27:50.094Z,4.10
2022-07-30T21:30:16.742Z,3.50
2022-07-30T21:32:43.521Z,3.67
2022-07-30T21:35:11.812Z,5.23
2022-07-30T21:37:38.326Z,3.67
2022-07-30T21:40:09.746Z,4.60
2022-07-30T21:42:36.134Z,4.70
2022-07-30T21:45:14.807Z,3.10
2022-07-30T21:47:41.886Z,2.80
2022-07-30T21:53:01.755Z,3.03
2022-07-30T21:55:33.437Z,2.30
2022-07-30T21:58:06.782Z,2.37
2022-07-30T22:00:44.570Z,2.87
2022-07-30T22:03:12.479Z,3.37
2022-07-30T22:05:58.294Z,2.93
2022-07-30T22:08:26.938Z,3.30
2022-07-30T22:10:54.087Z,5.77
2022-07-30T22:13:22.555Z,4.00
2022-07-30T22:15:49.146Z,4.83
2022-07-30T22:18:15.540Z,4.00
2022-07-30T22:20:41.985Z,3.33
2022-07-30T22:23:08.782Z,3.33
2022-07-30T22:25:43.857Z,3.40
2022-07-30T22:28:12.534Z,3.17
2022-07-30T22:30:40.039Z,4.90
2022-07-30T22:33:07.644Z,3.33
2022-07-30T22:35:34.397Z,3.90
2022-07-30T22:38:01.323Z,3.20
2022-07-30T22:40:27.705Z,2.33
2022-07-30T22:42:54.146Z,3.67
2022-07-30T22:45:46.677Z,2.87
2022-07-30T22:48:10.936Z,4.00
2022-07-30T22:50:40.174Z,2.87
2022-07-30T22:53:23.411Z,2.80
2022-07-30T22:55:54.700Z,3.20
2022-07-30T22:58:22.061Z,3.37
2022-07-30T23:00:52.865Z,6.17
2022-07-30T23:03:19.374Z,4.17
2022-07-30T23:05:55.205Z,4.60
2022-07-30T23:08:29.917Z,2.93
2022-07-30T23:10:57.927Z,3.10
2022-07-30T23:12:32.268Z,2.77
2022-07-30T23:13:24.346Z,5.00
2022-07-30T23:15:50.738Z,3.00
2022-07-30T23:18:17.137Z,3.63
2022-07-30T23:20:43.548Z,4.50
2022-07-30T23:23:11.483Z,2.93
2022-07-30T23:25:38.712Z,4.53
2022-07-30T23:28:05.511Z,3.53
2022-07-30T23:30:33.929Z,3.00
2022-07-30T23:33:00.842Z,2.73
2022-07-30T23:35:27.236Z,3.53
2022-07-30T23:37:53.613Z,2.00
2022-07-30T23:40:20.006Z,2.80
2022-07-30T23:42:50.872Z,2.63
2022-07-30T23:45:17.555Z,5.00
2022-07-30T23:47:54.609Z,2.80
2022-07-30T23:50:33.219Z,3.33
2022-07-30T23:53:00.398Z,2.90
2022-07-30T23:55:27.235Z,2.43
2022-07-30T23:57:53.953Z,2.60
